sensor_id;sensor_type;location;lat;lon;timestamp;pressure;altitude;pressure_sealevel;temperature;humidity
10688;BME280;5392;42.688;23.298;2023-04-08T00:00:25;57415.50;;;-144.48;92.97
10688;BME280;5392;42.688;23.298;2023-04-08T00:02:52;57400.91;;;-144.48;94.37
10688;BME280;5392;42.688;23.298;2023-04-08T00:05:20;57446.81;;;-144.48;94.12
10688;BME280;5392;42.688;23.298;2023-04-08T00:07:47;57415.50;;;-144.48;94.30
10688;BME280;5392;42.688;23.298;2023-04-08T00:10:13;57421.78;;;-144.48;93.91
10688;BME280;5392;42.688;23.298;2023-04-08T00:12:40;57446.81;;;-144.48;93.94
10688;BME280;5392;42.688;23.298;2023-04-08T00:15:07;57396.72;;;-144.48;93.59
10688;BME280;5392;42.688;23.298;2023-04-08T00:17:34;57419.69;;;-144.48;94.64
10688;BME280;5392;42.688;23.298;2023-04-08T00:20:01;57461.44;;;-144.48;93.72
10688;BME280;5392;42.688;23.298;2023-04-08T00:22:28;57476.03;;;-144.48;93.01
10688;BME280;5392;42.688;23.298;2023-04-08T00:24:56;57405.06;;;-144.48;93.45
10688;BME280;5392;42.688;23.298;2023-04-08T00:27:23;57413.44;;;-144.48;93.18
10688;BME280;5392;42.688;23.298;2023-04-08T00:29:53;57419.69;;;-144.48;92.75
10688;BME280;5392;42.688;23.298;2023-04-08T00:32:19;57463.53;;;-144.48;92.68
10688;BME280;5392;42.688;23.298;2023-04-08T00:34:46;57453.09;;;-144.48;92.80
10688;BME280;5392;42.688;23.298;2023-04-08T00:37:13;57425.94;;;-144.48;93.46
10688;BME280;5392;42.688;23.298;2023-04-08T00:39:40;57390.47;;;-144.48;94.28
10688;BME280;5392;42.688;23.298;2023-04-08T00:42:06;57432.22;;;-144.48;95.20
10688;BME280;5392;42.688;23.298;2023-04-08T00:44:33;57442.66;;;-144.48;95.64
10688;BME280;5392;42.688;23.298;2023-04-08T00:47:00;57423.88;;;-144.48;95.81
10688;BME280;5392;42.688;23.298;2023-04-08T00:49:27;57388.38;;;-144.48;93.05
10688;BME280;5392;42.688;23.298;2023-04-08T00:51:53;57384.19;;;-144.48;93.06
10688;BME280;5392;42.688;23.298;2023-04-08T00:54:21;57400.91;;;-144.48;92.64
10688;BME280;5392;42.688;23.298;2023-04-08T00:56:47;57407.16;;;-144.48;93.07
10688;BME280;5392;42.688;23.298;2023-04-08T00:59:16;57451.00;;;-144.48;92.78
10688;BME280;5392;42.688;23.298;2023-04-08T01:04:54;57463.53;;;-144.48;93.74
10688;BME280;5392;42.688;23.298;2023-04-08T01:07:48;57405.06;;;-144.48;95.23
10688;BME280;5392;42.688;23.298;2023-04-08T01:10:20;57453.09;;;-144.48;96.89
10688;BME280;5392;42.688;23.298;2023-04-08T01:12:58;57448.91;;;-144.48;97.76
10688;BME280;5392;42.688;23.298;2023-04-08T01:15:28;57428.03;;;-144.48;98.55
10688;BME280;5392;42.688;23.298;2023-04-08T01:17:57;57423.88;;;-144.48;99.08
10688;BME280;5392;42.688;23.298;2023-04-08T01:20:25;57459.34;;;-144.48;100.00
10688;BME280;5392;42.688;23.298;2023-04-08T01:25:34;57417.59;;;-144.48;100.00
10688;BME280;5392;42.688;23.298;2023-04-08T01:28:11;57425.94;;;-144.48;100.00
10688;BME280;5392;42.688;23.298;2023-04-08T01:30:39;57432.22;;;-144.48;100.00
10688;BME280;5392;42.688;23.298;2023-04-08T01:33:12;57425.94;;;-144.48;100.00
10688;BME280;5392;42.688;23.298;2023-04-08T01:35:40;57430.13;;;-144.48;100.00
10688;BME280;5392;42.688;23.298;2023-04-08T01:38:09;57455.16;;;-144.48;100.00
10688;BME280;5392;42.688;23.298;2023-04-08T01:40:37;57436.38;;;-144.48;100.00
10688;BME280;5392;42.688;23.298;2023-04-08T01:43:07;57448.91;;;-144.48;100.00
10688;BME280;5392;42.688;23.298;2023-04-08T01:45:35;57430.13;;;-144.48;100.00
10688;BME280;5392;42.688;23.298;2023-04-08T01:48:02;57430.13;;;-144.48;100.00
10688;BME280;5392;42.688;23.298;2023-04-08T01:50:30;57451.00;;;-144.48;100.00
10688;BME280;5392;42.688;23.298;2023-04-08T01:52:59;57425.94;;;-144.48;99.46
10688;BME280;5392;42.688;23.298;2023-04-08T01:55:27;57421.78;;;-144.48;98.28
10688;BME280;5392;42.688;23.298;2023-04-08T01:57:56;57415.50;;;-144.48;97.20
10688;BME280;5392;42.688;23.298;2023-04-08T02:00:27;57419.69;;;-144.48;97.05
10688;BME280;5392;42.688;23.298;2023-04-08T02:02:56;57463.53;;;-144.48;97.41
10688;BME280;5392;42.688;23.298;2023-04-08T02:05:23;57430.13;;;-144.48;97.57
10688;BME280;5392;42.688;23.298;2023-04-08T02:07:50;57423.88;;;-144.48;98.03
10688;BME280;5392;42.688;23.298;2023-04-08T02:10:17;57405.06;;;-144.48;97.58
10688;BME280;5392;42.688;23.298;2023-04-08T02:12:44;57428.03;;;-144.48;97.71
10688;BME280;5392;42.688;23.298;2023-04-08T02:15:12;57409.25;;;-144.48;97.34
10688;BME280;5392;42.688;23.298;2023-04-08T02:20:20;57428.03;;;-144.48;97.68
10688;BME280;5392;42.688;23.298;2023-04-08T02:23:14;57444.72;;;-144.48;97.96
10688;BME280;5392;42.688;23.298;2023-04-08T02:25:42;57440.56;;;-144.48;99.08
10688;BME280;5392;42.688;23.298;2023-04-08T02:28:10;57419.69;;;-144.48;99.57
10688;BME280;5392;42.688;23.298;2023-04-08T02:30:41;57382.13;;;-144.48;100.00
10688;BME280;5392;42.688;23.298;2023-04-08T02:33:10;57442.66;;;-144.48;100.00
10688;BME280;5392;42.688;23.298;2023-04-08T02:35:39;57440.56;;;-144.48;100.00
10688;BME280;5392;42.688;23.298;2023-04-08T02:38:08;57413.44;;;-144.48;100.00
10688;BME280;5392;42.688;23.298;2023-04-08T02:40:35;57390.47;;;-144.48;100.00
10688;BME280;5392;42.688;23.298;2023-04-08T02:43:02;57432.22;;;-144.48;100.00
10688;BME280;5392;42.688;23.298;2023-04-08T02:45:32;57461.44;;;-144.48;100.00
10688;BME280;5392;42.688;23.298;2023-04-08T02:47:59;57373.75;;;-144.48;100.00
10688;BME280;5392;42.688;23.298;2023-04-08T02:50:26;57409.25;;;-144.48;100.00
10688;BME280;5392;42.688;23.298;2023-04-08T02:52:53;57457.25;;;-144.48;100.00
10688;BME280;5392;42.688;23.298;2023-04-08T02:55:20;57413.44;;;-144.48;100.00
10688;BME280;5392;42.688;23.298;2023-04-08T02:57:47;57419.69;;;-144.48;100.00
10688;BME280;5392;42.688;23.298;2023-04-08T03:00:14;57384.19;;;-144.48;100.00
10688;BME280;5392;42.688;23.298;2023-04-08T03:02:41;57471.88;;;-144.48;100.00
10688;BME280;5392;42.688;23.298;2023-04-08T03:05:08;57411.34;;;-144.48;100.00
10688;BME280;5392;42.688;23.298;2023-04-08T03:07:35;57415.50;;;-144.48;100.00
10688;BME280;5392;42.688;23.298;2023-04-08T03:10:02;57425.94;;;-144.48;100.00
10688;BME280;5392;42.688;23.298;2023-04-08T03:12:29;57419.69;;;-144.48;100.00
10688;BME280;5392;42.688;23.298;2023-04-08T03:14:56;57440.56;;;-144.48;100.00
10688;BME280;5392;42.688;23.298;2023-04-08T03:17:23;57423.88;;;-144.48;100.00
10688;BME280;5392;42.688;23.298;2023-04-08T03:19:50;57417.59;;;-144.48;100.00
10688;BME280;5392;42.688;23.298;2023-04-08T03:22:16;57436.38;;;-144.48;100.00
10688;BME280;5392;42.688;23.298;2023-04-08T03:24:43;57467.69;;;-144.48;100.00
10688;BME280;5392;42.688;23.298;2023-04-08T03:27:09;57436.38;;;-144.48;100.00
10688;BME280;5392;42.688;23.298;2023-04-08T03:29:37;57419.69;;;-144.48;100.00
10688;BME280;5392;42.688;23.298;2023-04-08T03:32:04;57448.91;;;-144.48;100.00
10688;BME280;5392;42.688;23.298;2023-04-08T03:34:33;57411.34;;;-144.48;100.00
10688;BME280;5392;42.688;23.298;2023-04-08T03:37:00;57417.59;;;-144.48;100.00
10688;BME280;5392;42.688;23.298;2023-04-08T03:39:27;57430.13;;;-144.48;100.00
10688;BME280;5392;42.688;23.298;2023-04-08T03:41:54;57423.88;;;-144.48;100.00
10688;BME280;5392;42.688;23.298;2023-04-08T03:44:20;57407.16;;;-144.48;100.00
10688;BME280;5392;42.688;23.298;2023-04-08T03:46:47;57413.44;;;-144.48;100.00
10688;BME280;5392;42.688;23.298;2023-04-08T03:49:14;57430.13;;;-144.48;100.00
10688;BME280;5392;42.688;23.298;2023-04-08T03:51:41;57451.00;;;-144.48;100.00
10688;BME280;5392;42.688;23.298;2023-04-08T03:54:07;57384.19;;;-144.48;100.00
10688;BME280;5392;42.688;23.298;2023-04-08T03:56:34;57461.44;;;-144.48;100.00
10688;BME280;5392;42.688;23.298;2023-04-08T03:59:01;57423.88;;;-144.48;100.00
10688;BME280;5392;42.688;23.298;2023-04-08T04:01:27;57442.66;;;-144.48;100.00
10688;BME280;5392;42.688;23.298;2023-04-08T04:03:55;57425.94;;;-144.48;100.00
10688;BME280;5392;42.688;23.298;2023-04-08T04:06:22;57413.44;;;-144.48;100.00
10688;BME280;5392;42.688;23.298;2023-04-08T04:08:49;57436.38;;;-144.48;100.00
10688;BME280;5392;42.688;23.298;2023-04-08T04:11:16;57405.06;;;-144.48;100.00
10688;BME280;5392;42.688;23.298;2023-04-08T04:13:43;57390.47;;;-144.48;100.00
10688;BME280;5392;42.688;23.298;2023-04-08T04:16:09;57432.22;;;-144.48;100.00
10688;BME280;5392;42.688;23.298;2023-04-08T04:18:36;57430.13;;;-144.48;100.00
10688;BME280;5392;42.688;23.298;2023-04-08T04:21:06;57400.91;;;-144.48;100.00
10688;BME280;5392;42.688;23.298;2023-04-08T04:23:33;57407.16;;;-144.48;100.00
10688;BME280;5392;42.688;23.298;2023-04-08T04:26:00;57413.44;;;-144.48;100.00
10688;BME280;5392;42.688;23.298;2023-04-08T04:28:26;57448.91;;;-144.48;100.00
10688;BME280;5392;42.688;23.298;2023-04-08T04:30:53;57388.38;;;-144.48;100.00
10688;BME280;5392;42.688;23.298;2023-04-08T04:33:22;57417.59;;;-144.48;100.00
10688;BME280;5392;42.688;23.298;2023-04-08T04:35:48;57411.34;;;-144.48;100.00
10688;BME280;5392;42.688;23.298;2023-04-08T04:38:15;57453.09;;;-144.48;100.00
10688;BME280;5392;42.688;23.298;2023-04-08T04:40:42;57413.44;;;-144.48;100.00
10688;BME280;5392;42.688;23.298;2023-04-08T04:43:09;57421.78;;;-144.48;100.00
10688;BME280;5392;42.688;23.298;2023-04-08T04:45:36;57405.06;;;-144.48;100.00
10688;BME280;5392;42.688;23.298;2023-04-08T04:48:03;57405.06;;;-144.48;100.00
10688;BME280;5392;42.688;23.298;2023-04-08T04:50:30;57409.25;;;-144.48;100.00
10688;BME280;5392;42.688;23.298;2023-04-08T04:52:56;57417.59;;;-144.48;100.00
10688;BME280;5392;42.688;23.298;2023-04-08T04:55:23;57388.38;;;-144.48;100.00
10688;BME280;5392;42.688;23.298;2023-04-08T04:57:50;57403.00;;;-144.48;100.00
10688;BME280;5392;42.688;23.298;2023-04-08T05:00:16;57417.59;;;-144.48;100.00
10688;BME280;5392;42.688;23.298;2023-04-08T05:02:43;57396.72;;;-144.48;100.00
10688;BME280;5392;42.688;23.298;2023-04-08T05:05:10;57446.81;;;-144.48;100.00
10688;BME280;5392;42.688;23.298;2023-04-08T05:07:37;57428.03;;;-144.48;100.00
10688;BME280;5392;42.688;23.298;2023-04-08T05:10:04;57453.09;;;-144.48;100.00
10688;BME280;5392;42.688;23.298;2023-04-08T05:12:31;57440.56;;;-144.48;100.00
10688;BME280;5392;42.688;23.298;2023-04-08T05:14:59;57423.88;;;-144.48;100.00
10688;BME280;5392;42.688;23.298;2023-04-08T05:17:26;57409.25;;;-144.48;100.00
10688;BME280;5392;42.688;23.298;2023-04-08T05:19:52;57457.25;;;-144.48;100.00
10688;BME280;5392;42.688;23.298;2023-04-08T05:22:19;57430.13;;;-144.48;100.00
10688;BME280;5392;42.688;23.298;2023-04-08T05:24:46;57415.50;;;-144.48;100.00
10688;BME280;5392;42.688;23.298;2023-04-08T05:27:12;57446.81;;;-144.48;99.40
10688;BME280;5392;42.688;23.298;2023-04-08T05:29:39;57421.78;;;-144.48;98.56
10688;BME280;5392;42.688;23.298;2023-04-08T05:32:05;57446.81;;;-144.48;97.79
10688;BME280;5392;42.688;23.298;2023-04-08T05:34:32;57463.53;;;-144.48;98.02
10688;BME280;5392;42.688;23.298;2023-04-08T05:36:59;57423.88;;;-144.48;96.23
10688;BME280;5392;42.688;23.298;2023-04-08T05:39:26;57442.66;;;-144.48;94.53
10688;BME280;5392;42.688;23.298;2023-04-08T05:41:52;57394.63;;;-144.48;91.75
10688;BME280;5392;42.688;23.298;2023-04-08T05:44:19;57432.22;;;-144.48;89.45
10688;BME280;5392;42.688;23.298;2023-04-08T05:46:46;57461.44;;;-144.48;86.85
10688;BME280;5392;42.688;23.298;2023-04-08T05:49:12;57413.44;;;-144.48;87.67
10688;BME280;5392;42.688;23.298;2023-04-08T05:51:39;57411.34;;;-144.48;86.32
10688;BME280;5392;42.688;23.298;2023-04-08T05:54:06;57419.69;;;-144.48;84.22
10688;BME280;5392;42.688;23.298;2023-04-08T05:56:33;57425.94;;;-144.48;84.27
10688;BME280;5392;42.688;23.298;2023-04-08T05:59:00;57386.28;;;-144.48;85.20
10688;BME280;5392;42.688;23.298;2023-04-08T06:01:26;57398.81;;;-144.48;85.55
10688;BME280;5392;42.688;23.298;2023-04-08T06:03:53;57428.03;;;-144.48;85.44
10688;BME280;5392;42.688;23.298;2023-04-08T06:06:22;57403.00;;;-144.48;85.84
10688;BME280;5392;42.688;23.298;2023-04-08T06:08:49;57396.72;;;-144.48;85.64
10688;BME280;5392;42.688;23.298;2023-04-08T06:11:16;57394.63;;;-144.48;83.85
10688;BME280;5392;42.688;23.298;2023-04-08T06:13:43;57444.72;;;-144.48;81.68
10688;BME280;5392;42.688;23.298;2023-04-08T06:16:14;57409.25;;;-144.48;81.55
10688;BME280;5392;42.688;23.298;2023-04-08T06:18:44;57446.81;;;-144.48;79.46
10688;BME280;5392;42.688;23.298;2023-04-08T06:21:10;57448.91;;;-144.48;77.93
10688;BME280;5392;42.688;23.298;2023-04-08T06:23:37;57425.94;;;-144.48;75.75
10688;BME280;5392;42.688;23.298;2023-04-08T06:26:04;57446.81;;;-144.48;75.53
10688;BME280;5392;42.688;23.298;2023-04-08T06:28:31;57444.72;;;-144.48;74.96
10688;BME280;5392;42.688;23.298;2023-04-08T06:30:58;57417.59;;;-144.48;75.29
10688;BME280;5392;42.688;23.298;2023-04-08T06:33:24;57425.94;;;-144.48;72.40
10688;BME280;5392;42.688;23.298;2023-04-08T06:35:56;57390.47;;;-144.48;72.70
10688;BME280;5392;42.688;23.298;2023-04-08T06:38:26;57394.63;;;-144.48;71.96
10688;BME280;5392;42.688;23.298;2023-04-08T06:40:53;57417.59;;;-144.48;71.74
10688;BME280;5392;42.688;23.298;2023-04-08T06:43:19;57388.38;;;-144.48;73.30
10688;BME280;5392;42.688;23.298;2023-04-08T06:45:46;57428.03;;;-144.48;77.23
10688;BME280;5392;42.688;23.298;2023-04-08T06:48:13;57438.47;;;-144.48;77.46
10688;BME280;5392;42.688;23.298;2023-04-08T06:50:39;57421.78;;;-144.48;77.38
10688;BME280;5392;42.688;23.298;2023-04-08T06:53:06;57430.13;;;-144.48;78.47
10688;BME280;5392;42.688;23.298;2023-04-08T06:55:32;57430.13;;;-144.48;81.03
10688;BME280;5392;42.688;23.298;2023-04-08T06:57:59;57421.78;;;-144.48;82.54
10688;BME280;5392;42.688;23.298;2023-04-08T07:00:27;57444.72;;;-144.48;81.80
10688;BME280;5392;42.688;23.298;2023-04-08T07:02:54;57400.91;;;-144.48;82.02
10688;BME280;5392;42.688;23.298;2023-04-08T07:05:20;57419.69;;;-144.48;83.75
10688;BME280;5392;42.688;23.298;2023-04-08T07:07:47;57386.28;;;-144.48;83.52
10688;BME280;5392;42.688;23.298;2023-04-08T07:10:14;57421.78;;;-144.48;83.77
10688;BME280;5392;42.688;23.298;2023-04-08T07:12:41;57419.69;;;-144.48;83.82
10688;BME280;5392;42.688;23.298;2023-04-08T07:15:08;57432.22;;;-144.48;84.11
10688;BME280;5392;42.688;23.298;2023-04-08T07:17:35;57436.38;;;-144.48;84.21
10688;BME280;5392;42.688;23.298;2023-04-08T07:20:02;57403.00;;;-144.48;82.39
10688;BME280;5392;42.688;23.298;2023-04-08T07:22:29;57400.91;;;-144.48;82.71
10688;BME280;5392;42.688;23.298;2023-04-08T07:24:55;57388.38;;;-144.48;82.24
10688;BME280;5392;42.688;23.298;2023-04-08T07:27:22;57411.34;;;-144.48;83.20
10688;BME280;5392;42.688;23.298;2023-04-08T07:29:52;57384.19;;;-144.48;84.46
10688;BME280;5392;42.688;23.298;2023-04-08T07:32:19;57440.56;;;-144.48;82.43
10688;BME280;5392;42.688;23.298;2023-04-08T07:34:47;57423.88;;;-144.48;79.85
10688;BME280;5392;42.688;23.298;2023-04-08T07:37:13;57432.22;;;-144.48;79.71
10688;BME280;5392;42.688;23.298;2023-04-08T07:39:40;57409.25;;;-144.48;78.37
10688;BME280;5392;42.688;23.298;2023-04-08T07:42:07;57419.69;;;-144.48;78.27
10688;BME280;5392;42.688;23.298;2023-04-08T07:44:33;57413.44;;;-144.48;77.12
10688;BME280;5392;42.688;23.298;2023-04-08T07:47:00;57430.13;;;-144.48;77.46
10688;BME280;5392;42.688;23.298;2023-04-08T07:49:27;57425.94;;;-144.48;75.01
10688;BME280;5392;42.688;23.298;2023-04-08T07:51:54;57415.50;;;-144.48;74.28
10688;BME280;5392;42.688;23.298;2023-04-08T07:54:21;57421.78;;;-144.48;74.31
10688;BME280;5392;42.688;23.298;2023-04-08T07:56:47;57423.88;;;-144.48;75.62
10688;BME280;5392;42.688;23.298;2023-04-08T07:59:14;57398.81;;;-144.48;74.52
10688;BME280;5392;42.688;23.298;2023-04-08T08:01:41;57396.72;;;-144.48;73.43
10688;BME280;5392;42.688;23.298;2023-04-08T08:04:08;57363.31;;;-144.48;74.41
10688;BME280;5392;42.688;23.298;2023-04-08T08:06:35;57413.44;;;-144.48;72.90
10688;BME280;5392;42.688;23.298;2023-04-08T08:09:01;57407.16;;;-144.48;70.20
10688;BME280;5392;42.688;23.298;2023-04-08T08:11:28;57400.91;;;-144.48;72.15
10688;BME280;5392;42.688;23.298;2023-04-08T08:13:55;57444.72;;;-144.48;74.98
10688;BME280;5392;42.688;23.298;2023-04-08T08:16:22;57442.66;;;-144.48;74.19
10688;BME280;5392;42.688;23.298;2023-04-08T08:18:52;57407.16;;;-144.48;74.05
10688;BME280;5392;42.688;23.298;2023-04-08T08:21:19;57455.16;;;-144.48;77.23
10688;BME280;5392;42.688;23.298;2023-04-08T08:23:45;57392.56;;;-144.48;78.43
10688;BME280;5392;42.688;23.298;2023-04-08T08:26:12;57438.47;;;-144.48;78.90
10688;BME280;5392;42.688;23.298;2023-04-08T08:28:39;57438.47;;;-144.48;78.86
10688;BME280;5392;42.688;23.298;2023-04-08T08:31:06;57438.47;;;-144.48;76.63
10688;BME280;5392;42.688;23.298;2023-04-08T08:33:33;57413.44;;;-144.48;76.18
10688;BME280;5392;42.688;23.298;2023-04-08T08:35:59;57444.72;;;-144.48;73.94
10688;BME280;5392;42.688;23.298;2023-04-08T08:38:26;57438.47;;;-144.48;73.36
10688;BME280;5392;42.688;23.298;2023-04-08T08:40:57;57432.22;;;-144.48;74.15
10688;BME280;5392;42.688;23.298;2023-04-08T08:43:24;57403.00;;;-144.48;76.50
10688;BME280;5392;42.688;23.298;2023-04-08T08:45:51;57407.16;;;-144.48;75.81
10688;BME280;5392;42.688;23.298;2023-04-08T08:48:18;57438.47;;;-144.48;76.43
10688;BME280;5392;42.688;23.298;2023-04-08T08:50:45;57403.00;;;-144.48;76.85
10688;BME280;5392;42.688;23.298;2023-04-08T08:53:12;57425.94;;;-144.48;76.50
10688;BME280;5392;42.688;23.298;2023-04-08T08:55:38;57442.66;;;-144.48;77.42
10688;BME280;5392;42.688;23.298;2023-04-08T08:58:26;57400.91;;;-144.48;74.82
10688;BME280;5392;42.688;23.298;2023-04-08T09:00:54;57417.59;;;-144.48;75.95
10688;BME280;5392;42.688;23.298;2023-04-08T09:06:00;57388.38;;;-144.48;77.66
10688;BME280;5392;42.688;23.298;2023-04-08T09:08:31;57388.38;;;-144.48;79.39
10688;BME280;5392;42.688;23.298;2023-04-08T09:11:15;57423.88;;;-144.48;77.88
10688;BME280;5392;42.688;23.298;2023-04-08T09:13:43;57419.69;;;-144.48;76.26
10688;BME280;5392;42.688;23.298;2023-04-08T09:16:12;57432.22;;;-144.48;75.49
10688;BME280;5392;42.688;23.298;2023-04-08T09:18:40;57377.94;;;-144.48;72.07
10688;BME280;5392;42.688;23.298;2023-04-08T09:21:11;57438.47;;;-144.48;70.52
10688;BME280;5392;42.688;23.298;2023-04-08T09:23:46;57375.84;;;-144.48;73.14
10688;BME280;5392;42.688;23.298;2023-04-08T09:26:20;57403.00;;;-144.48;70.46
10688;BME280;5392;42.688;23.298;2023-04-08T09:29:05;57388.38;;;-144.48;70.81
10688;BME280;5392;42.688;23.298;2023-04-08T09:31:54;57367.50;;;-144.48;70.99
10688;BME280;5392;42.688;23.298;2023-04-08T09:34:22;57400.91;;;-144.48;71.06
10688;BME280;5392;42.688;23.298;2023-04-08T09:36:50;57423.88;;;-144.48;69.84
10688;BME280;5392;42.688;23.298;2023-04-08T09:39:18;57436.38;;;-144.48;68.99
10688;BME280;5392;42.688;23.298;2023-04-08T09:41:48;57407.16;;;-144.48;66.73
10688;BME280;5392;42.688;23.298;2023-04-08T09:44:17;57446.81;;;-144.48;66.72
10688;BME280;5392;42.688;23.298;2023-04-08T09:54:53;57425.94;;;-144.48;67.01
10688;BME280;5392;42.688;23.298;2023-04-08T09:57:29;57421.78;;;-144.48;68.65
10688;BME280;5392;42.688;23.298;2023-04-08T10:00:12;57451.00;;;-144.48;68.79
10688;BME280;5392;42.688;23.298;2023-04-08T10:05:24;57413.44;;;-144.48;67.81
10688;BME280;5392;42.688;23.298;2023-04-08T10:07:55;57430.13;;;-144.48;68.26
10688;BME280;5392;42.688;23.298;2023-04-08T10:10:22;57400.91;;;-144.48;71.45
10688;BME280;5392;42.688;23.298;2023-04-08T10:12:49;57392.56;;;-144.48;71.00
10688;BME280;5392;42.688;23.298;2023-04-08T10:15:30;57440.56;;;-144.48;70.40
10688;BME280;5392;42.688;23.298;2023-04-08T10:25:28;57417.59;;;-144.48;67.78
10688;BME280;5392;42.688;23.298;2023-04-08T10:27:59;57394.63;;;-144.48;68.61
10688;BME280;5392;42.688;23.298;2023-04-08T10:32:54;57413.44;;;-144.48;67.93
10688;BME280;5392;42.688;23.298;2023-04-08T10:35:29;57451.00;;;-144.48;68.28
10688;BME280;5392;42.688;23.298;2023-04-08T10:37:57;57421.78;;;-144.48;69.83
10688;BME280;5392;42.688;23.298;2023-04-08T10:40:24;57380.03;;;-144.48;70.26
10688;BME280;5392;42.688;23.298;2023-04-08T10:42:55;57442.66;;;-144.48;68.84
10688;BME280;5392;42.688;23.298;2023-04-08T10:45:22;57380.03;;;-144.48;69.58
10688;BME280;5392;42.688;23.298;2023-04-08T10:47:49;57357.06;;;-144.48;69.52
10688;BME280;5392;42.688;23.298;2023-04-08T10:50:17;57428.03;;;-144.48;68.40
10688;BME280;5392;42.688;23.298;2023-04-08T10:55:14;57375.84;;;-144.48;69.60
10688;BME280;5392;42.688;23.298;2023-04-08T10:57:41;57396.72;;;-144.48;70.86
10688;BME280;5392;42.688;23.298;2023-04-08T11:00:16;57413.44;;;-144.48;69.38
10688;BME280;5392;42.688;23.298;2023-04-08T11:02:44;57415.50;;;-144.48;68.71
10688;BME280;5392;42.688;23.298;2023-04-08T11:07:57;57446.81;;;-144.48;69.72
10688;BME280;5392;42.688;23.298;2023-04-08T11:10:25;57432.22;;;-144.48;68.28
10688;BME280;5392;42.688;23.298;2023-04-08T11:12:55;57446.81;;;-144.48;67.80
10688;BME280;5392;42.688;23.298;2023-04-08T11:15:28;57411.34;;;-144.48;67.00
10688;BME280;5392;42.688;23.298;2023-04-08T11:17:55;57430.13;;;-144.48;66.78
10688;BME280;5392;42.688;23.298;2023-04-08T11:20:23;57430.13;;;-144.48;66.93
10688;BME280;5392;42.688;23.298;2023-04-08T11:22:50;57438.47;;;-144.48;66.83
10688;BME280;5392;42.688;23.298;2023-04-08T11:25:17;57403.00;;;-144.48;66.38
10688;BME280;5392;42.688;23.298;2023-04-08T11:27:44;57419.69;;;-144.48;65.29
10688;BME280;5392;42.688;23.298;2023-04-08T11:30:10;57436.38;;;-144.48;66.42
10688;BME280;5392;42.688;23.298;2023-04-08T11:32:38;57384.19;;;-144.48;65.37
10688;BME280;5392;42.688;23.298;2023-04-08T11:35:06;57390.47;;;-144.48;65.44
10688;BME280;5392;42.688;23.298;2023-04-08T11:37:38;57413.44;;;-144.48;64.67
10688;BME280;5392;42.688;23.298;2023-04-08T11:40:11;57430.13;;;-144.48;64.29
10688;BME280;5392;42.688;23.298;2023-04-08T11:42:38;57436.38;;;-144.48;65.28
10688;BME280;5392;42.688;23.298;2023-04-08T11:45:13;57419.69;;;-144.48;66.65
10688;BME280;5392;42.688;23.298;2023-04-08T11:47:40;57407.16;;;-144.48;65.27
10688;BME280;5392;42.688;23.298;2023-04-08T11:50:07;57413.44;;;-144.48;64.91
10688;BME280;5392;42.688;23.298;2023-04-08T11:52:47;57394.63;;;-144.48;64.63
10688;BME280;5392;42.688;23.298;2023-04-08T11:55:40;57436.38;;;-144.48;65.11
10688;BME280;5392;42.688;23.298;2023-04-08T11:58:07;57446.81;;;-144.48;65.49
10688;BME280;5392;42.688;23.298;2023-04-08T12:00:33;57444.72;;;-144.48;64.96
10688;BME280;5392;42.688;23.298;2023-04-08T12:03:00;57405.06;;;-144.48;64.68
10688;BME280;5392;42.688;23.298;2023-04-08T12:05:27;57430.13;;;-144.48;64.24
10688;BME280;5392;42.688;23.298;2023-04-08T12:07:53;57407.16;;;-144.48;64.21
10688;BME280;5392;42.688;23.298;2023-04-08T12:10:20;57438.47;;;-144.48;64.15
10688;BME280;5392;42.688;23.298;2023-04-08T12:12:47;57471.88;;;-144.48;65.32
10688;BME280;5392;42.688;23.298;2023-04-08T12:15:13;57413.44;;;-144.48;65.79
10688;BME280;5392;42.688;23.298;2023-04-08T12:17:41;57390.47;;;-144.48;66.71
10688;BME280;5392;42.688;23.298;2023-04-08T12:20:10;57396.72;;;-144.48;66.71
10688;BME280;5392;42.688;23.298;2023-04-08T12:22:38;57392.56;;;-144.48;66.24
10688;BME280;5392;42.688;23.298;2023-04-08T12:25:05;57446.81;;;-144.48;65.14
10688;BME280;5392;42.688;23.298;2023-04-08T12:27:32;57423.88;;;-144.48;64.05
10688;BME280;5392;42.688;23.298;2023-04-08T12:30:02;57428.03;;;-144.48;64.59
10688;BME280;5392;42.688;23.298;2023-04-08T12:32:29;57407.16;;;-144.48;65.37
10688;BME280;5392;42.688;23.298;2023-04-08T12:34:55;57455.16;;;-144.48;67.37
10688;BME280;5392;42.688;23.298;2023-04-08T12:37:22;57405.06;;;-144.48;66.96
10688;BME280;5392;42.688;23.298;2023-04-08T12:39:49;57386.28;;;-144.48;67.02
10688;BME280;5392;42.688;23.298;2023-04-08T12:42:16;57471.88;;;-144.48;67.47
10688;BME280;5392;42.688;23.298;2023-04-08T12:44:43;57463.53;;;-144.48;67.55
10688;BME280;5392;42.688;23.298;2023-04-08T12:47:10;57396.72;;;-144.48;67.49
10688;BME280;5392;42.688;23.298;2023-04-08T12:49:36;57396.72;;;-144.48;67.67
10688;BME280;5392;42.688;23.298;2023-04-08T12:52:06;57392.56;;;-144.48;67.47
10688;BME280;5392;42.688;23.298;2023-04-08T12:54:33;57453.09;;;-144.48;67.24
10688;BME280;5392;42.688;23.298;2023-04-08T12:57:00;57375.84;;;-144.48;67.55
10688;BME280;5392;42.688;23.298;2023-04-08T12:59:28;57417.59;;;-144.48;67.63
10688;BME280;5392;42.688;23.298;2023-04-08T13:01:54;57380.03;;;-144.48;67.57
10688;BME280;5392;42.688;23.298;2023-04-08T13:04:21;57396.72;;;-144.48;68.37
10688;BME280;5392;42.688;23.298;2023-04-08T13:06:48;57440.56;;;-144.48;69.39
10688;BME280;5392;42.688;23.298;2023-04-08T13:09:15;57400.91;;;-144.48;68.41
10688;BME280;5392;42.688;23.298;2023-04-08T13:11:41;57419.69;;;-144.48;70.08
10688;BME280;5392;42.688;23.298;2023-04-08T13:14:08;57411.34;;;-144.48;71.48
10688;BME280;5392;42.688;23.298;2023-04-08T13:16:35;57390.47;;;-144.48;73.17
10688;BME280;5392;42.688;23.298;2023-04-08T13:19:02;57428.03;;;-144.48;73.34